createdAt,value
2023-04-15T00:01:19.495Z,84.34
2023-04-15T00:03:48.752Z,84.53
2023-04-15T00:06:16.997Z,84.88
2023-04-15T00:08:45.395Z,85.18
2023-04-15T00:11:13.749Z,85.34
2023-04-15T00:13:41.958Z,85.38
2023-04-15T00:16:10.790Z,85.95
2023-04-15T00:18:39.179Z,86.31
2023-04-15T00:21:07.255Z,85.86
2023-04-15T00:23:37.165Z,85.74
2023-04-15T00:26:05.225Z,85.29
2023-04-15T00:28:33.670Z,85.12
2023-04-15T00:31:01.801Z,85.22
2023-04-15T00:33:29.814Z,85.46
2023-04-15T00:35:57.684Z,85.57
2023-04-15T00:38:25.733Z,85.71
2023-04-15T00:40:54.258Z,86.07
2023-04-15T00:43:22.148Z,86.12
2023-04-15T00:45:52.094Z,86.62
2023-04-15T00:48:20.548Z,86.40
2023-04-15T00:50:49.636Z,86.41
2023-04-15T00:53:17.566Z,86.15
2023-04-15T00:55:46.396Z,86.03
2023-04-15T00:58:15.197Z,86.22
2023-04-15T01:00:44.224Z,86.40
2023-04-15T01:03:12.375Z,86.45
2023-04-15T01:05:41.296Z,86.36
2023-04-15T01:08:09.826Z,86.32
2023-04-15T01:10:38.402Z,86.51
2023-04-15T01:13:06.893Z,86.39
2023-04-15T01:15:36.700Z,86.39
2023-04-15T01:18:04.838Z,86.28
2023-04-15T01:20:34.572Z,86.25
2023-04-15T01:23:02.945Z,86.32
2023-04-15T01:25:35.028Z,86.37
2023-04-15T01:28:06.125Z,86.41
2023-04-15T01:30:38.018Z,86.55
2023-04-15T01:33:06.633Z,86.64
2023-04-15T01:35:37.203Z,86.87
2023-04-15T01:38:07.817Z,87.09
2023-04-15T01:40:36.318Z,87.19
2023-04-15T01:43:04.317Z,87.32
2023-04-15T01:45:32.490Z,87.50
2023-04-15T01:48:00.885Z,87.54
2023-04-15T01:50:28.994Z,87.71
2023-04-15T01:52:57.177Z,88.05
2023-04-15T01:55:25.568Z,88.16
2023-04-15T01:57:53.940Z,88.30
2023-04-15T02:00:23.081Z,88.45
2023-04-15T02:02:51.431Z,88.56
2023-04-15T02:05:19.536Z,88.57
2023-04-15T02:07:49.465Z,88.77
2023-04-15T02:10:17.901Z,89.01
2023-04-15T02:12:46.601Z,89.26
2023-04-15T02:15:14.971Z,89.32
2023-04-15T02:17:45.992Z,89.36
2023-04-15T02:20:17.027Z,89.37
2023-04-15T02:22:44.986Z,89.50
2023-04-15T02:25:13.058Z,89.65
2023-04-15T02:27:41.115Z,89.71
2023-04-15T02:30:09.632Z,89.63
2023-04-15T02:32:38.483Z,89.79
2023-04-15T02:35:07.966Z,90.04
2023-04-15T02:37:44.034Z,90.26
2023-04-15T02:40:13.308Z,90.50
2023-04-15T02:42:42.640Z,90.54
2023-04-15T02:45:13.266Z,90.67
2023-04-15T02:47:43.436Z,90.93
2023-04-15T02:50:13.275Z,91.06
2023-04-15T02:52:43.510Z,91.39
2023-04-15T02:55:12.636Z,91.46
2023-04-15T02:57:41.691Z,91.64
2023-04-15T03:00:12.091Z,91.74
2023-04-15T03:02:43.580Z,91.85
2023-04-15T03:05:15.481Z,92.05
2023-04-15T03:07:49.383Z,92.28
2023-04-15T03:10:17.489Z,92.33
2023-04-15T03:12:47.728Z,92.47
2023-04-15T03:15:19.349Z,92.54
2023-04-15T03:17:50.735Z,92.66
2023-04-15T03:20:18.817Z,92.65
2023-04-15T03:22:46.653Z,92.72
2023-04-15T03:25:14.598Z,92.89
2023-04-15T03:27:42.665Z,93.20
2023-04-15T03:30:11.137Z,93.26
2023-04-15T03:32:40.319Z,93.17
2023-04-15T03:35:09.774Z,93.42
2023-04-15T03:37:37.823Z,93.45
2023-04-15T03:40:06.218Z,93.54
2023-04-15T03:42:34.261Z,93.68
2023-04-15T03:45:02.328Z,93.82
2023-04-15T03:47:30.414Z,93.84
2023-04-15T03:49:58.473Z,93.85
2023-04-15T03:52:26.405Z,93.94
2023-04-15T03:54:57.200Z,93.94
2023-04-15T03:57:25.666Z,94.06
2023-04-15T03:59:53.548Z,94.52
2023-04-15T04:02:22.965Z,94.65
2023-04-15T04:04:51.211Z,94.70
2023-04-15T04:07:19.279Z,94.94
2023-04-15T04:09:47.529Z,94.93
2023-04-15T04:12:15.620Z,95.10
2023-04-15T04:14:43.613Z,95.11
2023-04-15T04:17:11.790Z,95.22
2023-04-15T04:19:39.759Z,95.26
2023-04-15T04:22:07.598Z,95.37
2023-04-15T04:24:35.622Z,95.66
2023-04-15T04:27:03.667Z,95.74
2023-04-15T04:29:32.735Z,95.55
2023-04-15T04:32:01.192Z,95.62
2023-04-15T04:34:29.246Z,95.53
2023-04-15T04:36:57.202Z,95.50
2023-04-15T04:39:25.336Z,95.79
2023-04-15T04:41:53.413Z,95.99
2023-04-15T04:44:22.236Z,96.07
2023-04-15T04:46:50.350Z,95.96
2023-04-15T04:49:18.345Z,96.09
2023-04-15T04:51:47.124Z,96.09
2023-04-15T04:54:15.067Z,96.12
2023-04-15T04:56:43.005Z,96.05
2023-04-15T04:59:10.954Z,95.99
2023-04-15T05:01:38.938Z,95.84
2023-04-15T05:04:07.912Z,95.75
2023-04-15T05:06:36.840Z,95.67
2023-04-15T05:09:04.891Z,95.54
2023-04-15T05:11:33.476Z,95.46
2023-04-15T05:14:02.556Z,95.43
2023-04-15T05:16:30.688Z,95.31
2023-04-15T05:18:58.996Z,94.94
2023-04-15T05:21:27.725Z,94.41
2023-04-15T05:23:55.681Z,93.34
2023-04-15T05:26:24.368Z,91.87
2023-04-15T05:28:52.309Z,89.62
2023-04-15T05:31:20.720Z,88.32
2023-04-15T05:33:48.704Z,85.84
2023-04-15T05:36:16.751Z,83.93
2023-04-15T05:38:44.712Z,83.07
2023-04-15T05:41:12.866Z,82.84
2023-04-15T05:43:43.596Z,82.79
2023-04-15T05:46:11.781Z,82.45
2023-04-15T05:48:39.734Z,82.33
2023-04-15T05:51:07.845Z,81.66
2023-04-15T05:53:35.973Z,81.78
2023-04-15T05:56:04.455Z,80.68
2023-04-15T05:58:32.463Z,81.21
2023-04-15T06:01:03.966Z,80.36
2023-04-15T06:03:32.663Z,80.62
2023-04-15T06:06:01.603Z,80.07
2023-04-15T06:08:29.884Z,80.04
2023-04-15T06:10:59.610Z,79.96
2023-04-15T06:13:27.601Z,79.31
2023-04-15T06:15:55.600Z,79.04
2023-04-15T06:18:23.779Z,80.32
2023-04-15T06:20:52.141Z,80.10
2023-04-15T06:23:20.352Z,79.44
2023-04-15T06:25:50.931Z,79.80
2023-04-15T06:28:18.811Z,81.06
2023-04-15T06:30:46.845Z,80.23
2023-04-15T06:33:15.213Z,79.47
2023-04-15T06:35:43.168Z,78.88
2023-04-15T06:38:11.596Z,78.16
2023-04-15T06:40:39.797Z,78.07
2023-04-15T06:43:08.149Z,78.83
2023-04-15T06:45:36.456Z,79.49
2023-04-15T06:48:04.743Z,80.58
2023-04-15T06:50:32.916Z,81.38
2023-04-15T06:53:01.009Z,82.35
2023-04-15T06:55:28.955Z,82.82
2023-04-15T06:57:57.661Z,82.70
2023-04-15T07:00:25.653Z,82.40
2023-04-15T07:02:53.743Z,82.85
2023-04-15T07:05:21.739Z,83.00
2023-04-15T07:07:50.632Z,82.73
2023-04-15T07:10:19.719Z,83.09
2023-04-15T07:12:49.732Z,83.85
2023-04-15T07:15:21.462Z,84.27
2023-04-15T07:17:50.686Z,84.32
2023-04-15T07:20:19.559Z,83.62
2023-04-15T07:22:47.924Z,82.87
2023-04-15T07:25:19.038Z,82.65
2023-04-15T07:30:30.711Z,80.86
2023-04-15T07:32:59.583Z,80.62
2023-04-15T07:35:27.801Z,80.32
2023-04-15T07:37:56.346Z,80.92
2023-04-15T07:40:24.584Z,81.17
2023-04-15T07:42:57.812Z,80.84
2023-04-15T07:45:26.655Z,80.77
2023-04-15T07:47:57.102Z,80.16
2023-04-15T07:50:25.413Z,80.28
2023-04-15T07:52:53.936Z,80.00
2023-04-15T07:55:23.668Z,79.93
2023-04-15T07:57:51.865Z,79.88
2023-04-15T08:00:20.547Z,78.53
2023-04-15T08:02:55.938Z,78.85
2023-04-15T08:05:37.610Z,78.31
2023-04-15T08:08:06.239Z,79.07
2023-04-15T08:10:34.443Z,78.18
2023-04-15T08:13:02.606Z,78.32
2023-04-15T08:15:41.753Z,78.03
2023-04-15T08:21:11.181Z,78.27
2023-04-15T08:27:14.492Z,77.85
2023-04-15T08:30:20.890Z,78.51
2023-04-15T08:33:12.049Z,77.88
2023-04-15T08:35:42.378Z,77.99
2023-04-15T08:38:11.743Z,78.29
2023-04-15T08:40:49.672Z,78.09
2023-04-15T08:43:50.730Z,78.14
2023-04-15T08:46:27.362Z,77.71
2023-04-15T08:49:09.020Z,78.19
2023-04-15T08:51:41.397Z,78.50
2023-04-15T08:54:15.316Z,78.50
2023-04-15T08:56:44.776Z,78.40
2023-04-15T08:59:18.973Z,78.22
2023-04-15T09:01:56.139Z,78.03
2023-04-15T09:04:24.710Z,77.65
2023-04-15T09:06:55.990Z,77.40
2023-04-15T09:09:24.445Z,77.28
2023-04-15T09:11:54.053Z,77.66
2023-04-15T09:14:23.019Z,77.52
2023-04-15T09:17:07.153Z,77.30
2023-04-15T09:19:39.809Z,76.78
2023-04-15T09:22:10.984Z,76.57
2023-04-15T09:24:42.359Z,76.24
2023-04-15T09:27:11.559Z,75.90
2023-04-15T09:29:41.409Z,75.49
2023-04-15T09:32:14.753Z,76.24
2023-04-15T09:34:46.117Z,76.02
2023-04-15T09:37:29.082Z,75.89
2023-04-15T09:40:01.665Z,74.92
2023-04-15T09:45:12.854Z,74.22
2023-04-15T09:47:41.726Z,73.28
2023-04-15T09:50:18.684Z,72.99
2023-04-15T09:58:49.934Z,72.13
2023-04-15T10:01:20.218Z,73.20
2023-04-15T10:03:49.159Z,73.88
2023-04-15T10:06:18.688Z,73.75
2023-04-15T10:08:49.936Z,74.25
2023-04-15T10:11:24.070Z,74.05
2023-04-15T10:13:53.366Z,72.92
2023-04-15T10:16:24.112Z,72.24
2023-04-15T10:19:04.872Z,72.34
2023-04-15T10:21:39.732Z,73.26
2023-04-15T10:24:10.670Z,73.31
2023-04-15T10:26:39.653Z,72.65
2023-04-15T10:29:08.492Z,72.66
2023-04-15T10:31:38.709Z,72.38
2023-04-15T10:34:07.601Z,71.99
2023-04-15T10:36:35.674Z,72.11
2023-04-15T10:39:23.729Z,72.67
2023-04-15T10:42:11.337Z,71.88
2023-04-15T10:44:41.957Z,72.47
2023-04-15T10:47:20.446Z,72.19
2023-04-15T10:49:50.556Z,72.66
2023-04-15T10:52:23.464Z,72.68
2023-04-15T10:55:03.510Z,71.87
2023-04-15T10:57:48.256Z,71.32
2023-04-15T11:00:21.760Z,71.47
2023-04-15T11:03:00.211Z,70.85
2023-04-15T11:06:02.358Z,70.90
2023-04-15T11:09:05.803Z,71.10
2023-04-15T11:12:12.589Z,70.50
2023-04-15T11:14:45.305Z,70.00
2023-04-15T11:17:14.190Z,70.23
2023-04-15T11:19:42.744Z,71.11
2023-04-15T11:22:14.424Z,71.68
2023-04-15T11:24:52.790Z,72.62
2023-04-15T11:27:26.800Z,72.52
2023-04-15T11:29:58.815Z,72.67
2023-04-15T11:32:29.714Z,73.10
2023-04-15T11:34:59.548Z,73.00
2023-04-15T11:40:16.098Z,73.80
2023-04-15T11:42:50.571Z,73.61
2023-04-15T11:45:19.381Z,73.59
2023-04-15T11:47:54.635Z,72.64
2023-04-15T11:50:31.343Z,73.32
2023-04-15T11:53:08.587Z,72.59
2023-04-15T11:55:51.112Z,72.36
2023-04-15T11:58:24.351Z,71.79
2023-04-15T12:00:59.551Z,71.76
2023-04-15T12:06:23.725Z,71.21
2023-04-15T12:09:01.559Z,70.47
2023-04-15T12:11:38.515Z,70.25
2023-04-15T12:14:13.351Z,71.82
2023-04-15T12:16:51.767Z,72.40
2023-04-15T12:19:37.826Z,71.53
2023-04-15T12:22:11.971Z,71.43
2023-04-15T12:24:41.222Z,70.84
2023-04-15T12:27:11.906Z,71.61
2023-04-15T12:29:42.106Z,71.07
2023-04-15T12:32:21.408Z,70.08
2023-04-15T12:34:55.134Z,69.36
2023-04-15T12:37:26.436Z,69.36
2023-04-15T12:39:59.657Z,70.53
2023-04-15T12:42:37.460Z,71.07
2023-04-15T12:50:34.385Z,71.61
2023-04-15T12:53:03.869Z,71.83
2023-04-15T12:55:35.040Z,72.11
2023-04-15T12:58:09.943Z,72.51
2023-04-15T13:00:38.885Z,72.42
2023-04-15T13:03:07.492Z,72.77
2023-04-15T13:05:37.295Z,72.19
2023-04-15T13:08:05.989Z,72.14
2023-04-15T13:10:36.718Z,72.66
2023-04-15T13:18:35.845Z,72.65
2023-04-15T13:21:05.334Z,72.08
2023-04-15T13:23:33.709Z,72.40
2023-04-15T13:26:01.702Z,73.43
2023-04-15T13:28:30.099Z,73.83
2023-04-15T13:30:59.047Z,74.81
2023-04-15T13:33:27.943Z,75.38
2023-04-15T13:35:59.471Z,75.59
2023-04-15T13:38:27.927Z,75.48
2023-04-15T13:40:56.691Z,75.86
2023-04-15T13:43:27.834Z,75.82
2023-04-15T13:45:56.489Z,75.85
2023-04-15T13:48:25.301Z,76.18
2023-04-15T13:50:53.693Z,76.86
2023-04-15T13:53:33.887Z,77.06
2023-04-15T13:56:08.520Z,77.00
2023-04-15T13:58:38.300Z,77.41
2023-04-15T14:01:07.429Z,77.38
2023-04-15T14:03:36.973Z,77.32
2023-04-15T14:06:06.444Z,77.52
2023-04-15T14:08:34.698Z,78.02
2023-04-15T14:11:06.715Z,78.49
2023-04-15T14:13:34.721Z,78.88
2023-04-15T14:16:03.288Z,78.74
2023-04-15T14:18:31.913Z,79.10
2023-04-15T14:21:00.412Z,79.15
2023-04-15T14:23:29.078Z,79.02
2023-04-15T14:25:57.803Z,79.25
2023-04-15T14:28:26.654Z,79.39
2023-04-15T14:30:55.617Z,80.23
2023-04-15T14:33:24.088Z,81.16
2023-04-15T14:35:52.569Z,81.44
2023-04-15T14:38:23.124Z,81.82
2023-04-15T14:40:51.163Z,82.28
2023-04-15T14:43:19.117Z,82.05
2023-04-15T14:45:47.807Z,81.88
2023-04-15T14:48:16.147Z,80.95
2023-04-15T14:50:45.575Z,80.44
2023-04-15T14:53:14.049Z,79.92
2023-04-15T14:55:42.157Z,80.19
2023-04-15T14:58:10.279Z,79.99
2023-04-15T15:00:44.596Z,80.29
2023-04-15T15:03:13.589Z,81.07
2023-04-15T15:05:46.782Z,81.75
2023-04-15T15:08:15.332Z,81.89
2023-04-15T15:10:49.115Z,81.91
2023-04-15T15:13:19.174Z,82.06
2023-04-15T15:15:49.940Z,81.28
2023-04-15T15:18:21.949Z,81.17
2023-04-15T15:20:50.110Z,81.27
2023-04-15T15:23:18.365Z,81.35
2023-04-15T15:25:47.776Z,81.17
2023-04-15T15:28:15.862Z,81.44
2023-04-15T15:30:43.840Z,81.40
2023-04-15T15:33:14.920Z,81.86
2023-04-15T15:35:42.917Z,81.75
2023-04-15T15:38:12.830Z,81.72
2023-04-15T15:40:40.778Z,81.74
2023-04-15T15:43:08.914Z,81.83
2023-04-15T15:45:37.377Z,81.85
2023-04-15T15:48:06.308Z,81.79
2023-04-15T15:50:35.512Z,81.89
2023-04-15T15:53:03.975Z,82.53
2023-04-15T15:55:32.215Z,82.73
2023-04-15T15:58:00.405Z,83.27
2023-04-15T16:00:28.684Z,83.52
2023-04-15T16:05:29.930Z,83.19
2023-04-15T16:07:59.514Z,83.03
2023-04-15T16:10:28.168Z,83.22
2023-04-15T16:12:56.578Z,83.08
2023-04-15T16:15:26.452Z,83.26
2023-04-15T16:17:54.341Z,83.18
2023-04-15T16:20:22.453Z,83.34
2023-04-15T16:22:51.362Z,83.08
2023-04-15T16:25:19.672Z,83.17
2023-04-15T16:28:00.822Z,83.86
2023-04-15T16:30:31.523Z,84.13
2023-04-15T16:32:59.629Z,84.42
2023-04-15T16:35:28.348Z,84.25
2023-04-15T16:37:56.419Z,84.48
2023-04-15T16:40:24.939Z,84.47
2023-04-15T16:42:53.195Z,84.50
2023-04-15T16:45:21.433Z,84.54
2023-04-15T16:47:49.535Z,84.62
2023-04-15T16:50:17.692Z,84.85
2023-04-15T16:52:45.803Z,85.01
2023-04-15T16:55:14.165Z,85.32
2023-04-15T16:58:02.370Z,85.49
2023-04-15T17:00:32.968Z,85.55
2023-04-15T17:03:01.786Z,85.77
2023-04-15T17:05:33.410Z,85.78
2023-04-15T17:08:01.698Z,85.80
2023-04-15T17:10:30.750Z,86.02
2023-04-15T17:12:59.706Z,85.80
2023-04-15T17:15:27.939Z,85.94
2023-04-15T17:17:56.100Z,86.04
2023-04-15T17:20:24.480Z,86.02
2023-04-15T17:22:52.829Z,86.01
2023-04-15T17:25:26.915Z,86.14
2023-04-15T17:27:59.262Z,86.27
2023-04-15T17:30:28.394Z,86.21
2023-04-15T17:32:57.727Z,86.35
2023-04-15T17:35:30.287Z,86.17
2023-04-15T17:38:02.447Z,86.13
2023-04-15T17:40:30.385Z,86.52
2023-04-15T17:42:59.504Z,86.44
2023-04-15T17:45:29.867Z,86.56
2023-04-15T17:48:04.535Z,86.87
2023-04-15T17:50:33.580Z,86.91
2023-04-15T17:53:03.428Z,87.17
2023-04-15T17:55:34.140Z,87.23
2023-04-15T17:58:04.058Z,87.59
2023-04-15T18:03:17.053Z,88.01
2023-04-15T18:05:45.373Z,88.17
2023-04-15T18:08:14.011Z,88.53
2023-04-15T18:10:42.101Z,88.54
2023-04-15T18:13:10.586Z,88.13
2023-04-15T18:15:38.844Z,88.13
2023-04-15T18:18:07.598Z,88.00
2023-04-15T18:20:37.451Z,88.21
2023-04-15T18:23:06.138Z,88.05
2023-04-15T18:25:34.531Z,87.95
2023-04-15T18:28:04.983Z,87.92
2023-04-15T18:30:33.053Z,87.84
2023-04-15T18:33:01.538Z,87.84
2023-04-15T18:35:30.123Z,87.97
2023-04-15T18:37:59.227Z,88.05
2023-04-15T18:40:27.374Z,88.18
2023-04-15T18:42:55.836Z,88.35
2023-04-15T18:45:24.777Z,88.54
2023-04-15T18:47:55.255Z,88.77
2023-04-15T18:50:23.509Z,89.25
2023-04-15T18:52:54.212Z,90.04
2023-04-15T18:55:23.123Z,90.80
2023-04-15T18:57:51.587Z,91.71
2023-04-15T19:00:23.036Z,92.28
2023-04-15T19:02:51.443Z,93.49
2023-04-15T19:05:22.953Z,94.22
2023-04-15T19:07:51.916Z,94.62
2023-04-15T19:10:20.394Z,94.88
2023-04-15T19:12:51.543Z,95.33
2023-04-15T19:15:19.939Z,95.58
2023-04-15T19:17:48.594Z,95.67
2023-04-15T19:20:17.063Z,95.82
2023-04-15T19:22:45.843Z,96.03
2023-04-15T19:25:14.785Z,96.25
2023-04-15T19:27:46.187Z,96.34
2023-04-15T19:30:14.594Z,96.63
2023-04-15T19:32:44.212Z,96.46
2023-04-15T19:35:12.434Z,96.74
2023-04-15T19:37:41.108Z,96.77
2023-04-15T19:40:12.608Z,96.95
2023-04-15T19:42:40.687Z,96.82
2023-04-15T19:45:08.997Z,97.10
2023-04-15T19:47:37.453Z,97.02
2023-04-15T19:50:07.493Z,97.09
2023-04-15T19:52:38.142Z,97.06
2023-04-15T19:55:07.673Z,97.16
2023-04-15T19:57:36.239Z,97.18
2023-04-15T20:00:04.647Z,96.87
2023-04-15T20:02:33.978Z,97.00
2023-04-15T20:05:05.654Z,97.25
2023-04-15T20:07:33.749Z,96.81
2023-04-15T20:10:08.627Z,96.50
2023-04-15T20:12:50.151Z,96.49
2023-04-15T20:15:24.262Z,96.44
2023-04-15T20:17:52.692Z,96.21
2023-04-15T20:20:21.329Z,96.07
2023-04-15T20:22:49.831Z,96.09
2023-04-15T20:25:18.269Z,95.92
2023-04-15T20:27:46.269Z,96.08
2023-04-15T20:30:14.442Z,96.01
2023-04-15T20:32:42.680Z,95.96
2023-04-15T20:35:14.535Z,96.34
2023-04-15T20:37:45.246Z,96.41
2023-04-15T20:40:14.794Z,96.30
2023-04-15T20:42:43.774Z,96.18
2023-04-15T20:45:12.006Z,96.26
2023-04-15T20:47:40.436Z,96.27
2023-04-15T20:50:09.045Z,96.35
2023-04-15T20:52:38.247Z,96.41
2023-04-15T20:55:10.842Z,96.39
2023-04-15T20:57:39.003Z,96.19
2023-04-15T21:00:09.719Z,96.34
2023-04-15T21:02:38.358Z,96.42
2023-04-15T21:05:06.862Z,96.18
2023-04-15T21:07:34.849Z,96.29
2023-04-15T21:10:02.878Z,96.47
2023-04-15T21:12:31.230Z,96.44
2023-04-15T21:14:59.590Z,96.46
2023-04-15T21:17:27.598Z,96.49
2023-04-15T21:19:55.741Z,96.48
2023-04-15T21:22:23.981Z,96.45
2023-04-15T21:24:51.976Z,96.48
2023-04-15T21:27:19.905Z,96.67
2023-04-15T21:29:48.092Z,96.57
2023-04-15T21:32:16.784Z,96.66
2023-04-15T21:34:45.032Z,96.73
2023-04-15T21:37:13.067Z,96.76
2023-04-15T21:39:41.264Z,96.65
2023-04-15T21:42:09.198Z,96.87
2023-04-15T21:44:37.036Z,96.94
2023-04-15T21:47:05.133Z,97.10
2023-04-15T21:49:33.221Z,97.10
2023-04-15T21:52:01.477Z,97.21
2023-04-15T21:54:31.043Z,97.43
2023-04-15T21:56:59.269Z,97.53
2023-04-15T21:59:27.465Z,97.64
2023-04-15T22:01:55.607Z,97.75
2023-04-15T22:04:23.956Z,97.85
2023-04-15T22:06:52.408Z,98.08
2023-04-15T22:09:20.484Z,98.15
2023-04-15T22:11:49.025Z,98.10
2023-04-15T22:14:16.910Z,98.20
2023-04-15T22:16:45.273Z,98.41
2023-04-15T22:19:13.426Z,98.46
2023-04-15T22:21:41.381Z,98.55
2023-04-15T22:24:39.177Z,98.60
2023-04-15T22:26:59.003Z,98.51
2023-04-15T22:29:27.308Z,98.66
2023-04-15T22:31:55.492Z,98.79
2023-04-15T22:34:23.469Z,98.82
2023-04-15T22:36:52.696Z,98.86
2023-04-15T22:39:21.396Z,98.85
2023-04-15T22:41:49.565Z,98.83
2023-04-15T22:44:17.631Z,98.84
2023-04-15T22:46:45.666Z,98.72
2023-04-15T22:49:13.526Z,98.80
2023-04-15T22:51:41.502Z,98.89
2023-04-15T22:54:09.560Z,99.08
2023-04-15T22:56:37.413Z,99.10
2023-04-15T22:59:05.580Z,99.25
2023-04-15T23:01:33.614Z,99.24
2023-04-15T23:04:08.803Z,99.30
2023-04-15T23:06:49.618Z,99.52
2023-04-15T23:09:17.675Z,99.64
2023-04-15T23:11:45.502Z,99.66
2023-04-15T23:14:13.404Z,99.67
2023-04-15T23:16:41.432Z,99.76
2023-04-15T23:19:09.645Z,99.99
2023-04-15T23:21:37.760Z,99.99
2023-04-15T23:24:06.083Z,99.99
2023-04-15T23:26:33.952Z,99.99
2023-04-15T23:29:02.018Z,99.99
2023-04-15T23:31:30.058Z,99.99
2023-04-15T23:33:58.081Z,99.99
2023-04-15T23:36:27.362Z,99.99
2023-04-15T23:38:55.483Z,99.99
2023-04-15T23:41:23.513Z,99.99
2023-04-15T23:43:51.721Z,99.99
2023-04-15T23:46:19.716Z,99.99
2023-04-15T23:48:49.064Z,99.99
2023-04-15T23:51:17.304Z,99.99
2023-04-15T23:53:45.533Z,99.99
2023-04-15T23:56:13.585Z,99.99
2023-04-15T23:58:41.524Z,99.99
